createdAt,value
2017-09-01T00:00:53.193Z,60.37
2017-09-01T00:01:53.224Z,60.46
2017-09-01T00:02:52.918Z,60.56
2017-09-01T00:03:53.260Z,60.27
2017-09-01T00:04:53.284Z,60.37
2017-09-01T00:05:52.989Z,60.27
2017-09-01T00:06:53.324Z,60.17
2017-09-01T00:07:53.348Z,60.27
2017-09-01T00:08:53.379Z,60.85
2017-09-01T00:09:53.074Z,60.27
2017-09-01T00:10:53.420Z,59.99
2017-09-01T00:11:53.115Z,60.56
2017-09-01T00:12:53.460Z,60.56
2017-09-01T00:13:53.482Z,60.46
2017-09-01T00:14:53.504Z,60.46
2017-09-01T00:15:53.206Z,61.04
2017-09-01T00:16:53.232Z,60.85
2017-09-01T00:17:53.586Z,60.94
2017-09-01T00:18:53.606Z,60.75
2017-09-01T00:19:53.627Z,60.46
2017-09-01T00:20:53.654Z,60.56
2017-09-01T00:21:53.350Z,60.66
2017-09-01T00:22:53.422Z,60.56
2017-09-01T00:23:53.721Z,60.56
2017-09-01T00:24:53.737Z,60.56
2017-09-01T00:25:53.435Z,60.66
2017-09-01T00:26:53.788Z,60.66
2017-09-01T00:27:53.495Z,60.75
2017-09-01T00:28:53.505Z,60.46
2017-09-01T00:29:53.526Z,60.85
2017-09-01T00:30:53.874Z,60.75
2017-09-01T00:31:53.894Z,60.46
2017-09-01T00:32:53.917Z,60.46
2017-09-01T00:33:53.620Z,60.85
2017-09-01T00:34:53.638Z,60.56
2017-09-01T00:35:53.980Z,60.27
2017-09-01T00:36:53.683Z,60.37
2017-09-01T00:37:53.708Z,60.46
2017-09-01T00:38:54.050Z,60.56
2017-09-01T00:39:53.749Z,60.75
2017-09-01T00:40:54.096Z,60.56
2017-09-01T00:41:53.797Z,60.75
2017-09-01T00:42:54.152Z,60.66
2017-09-01T00:43:53.844Z,60.56
2017-09-01T00:44:53.862Z,60.56
2017-09-01T00:45:54.210Z,60.66
2017-09-01T00:46:54.234Z,60.66
2017-09-01T00:47:54.254Z,60.56
2017-09-01T00:48:54.274Z,60.56
2017-09-01T00:49:54.298Z,60.66
2017-09-01T00:50:54.350Z,60.66
2017-09-01T00:51:54.344Z,60.66
2017-09-01T00:52:54.367Z,60.46
2017-09-01T00:53:54.388Z,60.46
2017-09-01T00:54:54.409Z,60.37
2017-09-01T00:55:54.107Z,60.37
2017-09-01T00:56:54.452Z,60.66
2017-09-01T00:57:54.154Z,60.37
2017-09-01T00:58:54.175Z,60.37
2017-09-01T00:59:54.196Z,60.66
2017-09-01T01:00:54.546Z,60.46
2017-09-01T01:01:54.565Z,60.46
2017-09-01T01:02:54.262Z,60.37
2017-09-01T01:03:54.285Z,60.56
2017-09-01T01:04:54.629Z,60.46
2017-09-01T01:05:54.332Z,60.75
2017-09-01T01:06:54.366Z,60.56
2017-09-01T01:07:54.373Z,60.75
2017-09-01T01:08:54.722Z,60.75
2017-09-01T01:09:54.945Z,60.56
2017-09-01T01:10:54.440Z,60.94
2017-09-01T01:11:54.788Z,60.85
2017-09-01T01:12:54.486Z,60.94
2017-09-01T01:13:54.830Z,60.85
2017-09-01T01:14:54.855Z,61.01
2017-09-01T01:15:54.875Z,60.75
2017-09-01T01:16:54.575Z,60.94
2017-09-01T01:17:55.013Z,60.66
2017-09-01T01:18:55.175Z,60.56
2017-09-01T01:19:55.174Z,60.91
2017-09-01T01:20:54.860Z,60.85
2017-09-01T01:21:54.858Z,60.72
2017-09-01T01:22:54.897Z,60.63
2017-09-01T01:23:55.056Z,61.11
2017-09-01T01:24:55.077Z,61.23
2017-09-01T01:25:55.108Z,60.94
2017-09-01T01:26:55.124Z,60.53
2017-09-01T01:27:54.825Z,61.49
2017-09-01T01:28:55.164Z,61.2
2017-09-01T01:29:55.186Z,60.91
2017-09-01T01:30:55.219Z,61.2
2017-09-01T01:31:55.236Z,61.3
2017-09-01T01:32:54.931Z,61.11
2017-09-01T01:33:55.271Z,60.72
2017-09-01T01:34:55.296Z,60.82
2017-09-01T01:35:55.321Z,60.72
2017-09-01T01:36:55.341Z,60.91
2017-09-01T01:37:55.370Z,61.01
2017-09-01T01:38:55.389Z,61.11
2017-09-01T01:39:55.408Z,61.2
2017-09-01T01:40:55.107Z,61.2
2017-09-01T01:41:55.451Z,61.3
2017-09-01T01:42:55.152Z,61.68
2017-09-01T01:43:55.178Z,61.4
2017-09-01T01:44:55.196Z,61.58
2017-09-01T01:45:55.553Z,61.49
2017-09-01T01:46:55.242Z,61.58
2017-09-01T01:47:55.261Z,61.49
2017-09-01T01:48:55.283Z,61.49
2017-09-01T01:49:55.307Z,61.49
2017-09-01T01:50:55.331Z,61.3
2017-09-01T01:51:55.356Z,61.49
2017-09-01T01:52:55.698Z,61.4
2017-09-01T01:53:55.396Z,61.58
2017-09-01T01:54:55.741Z,61.3
2017-09-01T01:55:55.768Z,61.2
2017-09-01T01:56:55.785Z,61.3
2017-09-01T01:57:55.809Z,61.2
2017-09-01T01:58:55.507Z,61.2
2017-09-01T01:59:55.855Z,61.3
2017-09-01T02:00:55.877Z,61.3
2017-09-01T02:01:55.898Z,61.4
2017-09-01T02:02:55.920Z,61.4
2017-09-01T02:03:55.621Z,61.3
2017-09-01T02:04:55.965Z,61.78
2017-09-01T02:05:55.662Z,61.49
2017-09-01T02:06:56.007Z,61.3
2017-09-01T02:07:56.025Z,61.49
2017-09-01T02:08:55.729Z,61.49
2017-09-01T02:09:56.073Z,61.2
2017-09-01T02:10:55.771Z,61.2
2017-09-01T02:11:55.796Z,61.3
2017-09-01T02:12:56.141Z,61.78
2017-09-01T02:13:56.165Z,61.87
2017-09-01T02:14:55.863Z,61.87
2017-09-01T02:15:55.882Z,61.68
2017-09-01T02:16:55.902Z,61.55
2017-09-01T02:17:56.248Z,61.49
2017-09-01T02:18:55.947Z,61.4
2017-09-01T02:19:56.293Z,61.3
2017-09-01T02:20:55.992Z,61.49
2017-09-01T02:21:56.339Z,61.87
2017-09-01T02:22:56.369Z,61.75
2017-09-01T02:23:56.385Z,61.87
2017-09-01T02:24:56.082Z,61.78
2017-09-01T02:25:56.102Z,61.49
2017-09-01T02:26:56.131Z,61.58
2017-09-01T02:27:56.144Z,61.36
2017-09-01T02:28:56.492Z,61.4
2017-09-01T02:29:56.516Z,61.49
2017-09-01T02:30:56.216Z,61.58
2017-09-01T02:31:56.554Z,61.55
2017-09-01T02:32:56.576Z,61.58
2017-09-01T02:33:56.608Z,61.3
2017-09-01T02:34:56.662Z,61.27
2017-09-01T02:35:56.661Z,61.65
2017-09-01T02:36:56.342Z,61.58
2017-09-01T02:37:56.470Z,61.49
2017-09-01T02:38:56.496Z,61.58
2017-09-01T02:39:56.507Z,61.75
2017-09-01T02:40:56.504Z,61.55
2017-09-01T02:41:56.809Z,61.78
2017-09-01T02:42:56.503Z,61.78
2017-09-01T02:43:56.870Z,61.46
2017-09-01T02:44:56.632Z,61.78
2017-09-01T02:45:56.863Z,61.87
2017-09-01T02:46:56.886Z,61.55
2017-09-01T02:47:56.910Z,61.55
2017-09-01T02:48:56.936Z,61.75
2017-09-01T02:49:56.954Z,61.94
2017-09-01T02:50:56.976Z,61.84
2017-09-01T02:51:56.675Z,61.55
2017-09-01T02:52:57.016Z,61.68
2017-09-01T02:53:57.042Z,61.65
2017-09-01T02:54:56.808Z,61.65
2017-09-01T02:55:57.085Z,61.75
2017-09-01T02:56:57.105Z,61.65
2017-09-01T02:57:57.128Z,61.65
2017-09-01T02:58:56.827Z,61.65
2017-09-01T02:59:57.198Z,61.65
2017-09-01T03:00:56.880Z,61.55
2017-09-01T03:01:56.896Z,61.65
2017-09-01T03:02:56.913Z,62.13
2017-09-01T03:03:57.260Z,61.84
2017-09-01T03:04:57.279Z,61.55
2017-09-01T03:05:56.979Z,61.75
2017-09-01T03:06:57.322Z,61.65
2017-09-01T03:07:57.346Z,62.32
2017-09-01T03:08:57.372Z,62.32
2017-09-01T03:09:57.067Z,62.13
2017-09-01T03:10:57.410Z,61.84
2017-09-01T03:11:57.436Z,61.84
2017-09-01T03:12:57.132Z,62.23
2017-09-01T03:13:57.156Z,61.84
2017-09-01T03:14:57.502Z,62.13
2017-09-01T03:15:57.524Z,61.94
2017-09-01T03:16:57.218Z,61.84
2017-09-01T03:17:57.566Z,62.13
2017-09-01T03:18:57.267Z,61.84
2017-09-01T03:19:57.285Z,61.84
2017-09-01T03:20:57.641Z,61.84
2017-09-01T03:21:57.669Z,62.04
2017-09-01T03:22:57.678Z,61.84
2017-09-01T03:23:57.696Z,62.13
2017-09-01T03:24:57.716Z,62.42
2017-09-01T03:25:57.741Z,61.84
2017-09-01T03:26:57.440Z,61.94
2017-09-01T03:27:57.790Z,62.32
2017-09-01T03:28:57.485Z,62.42
2017-09-01T03:29:57.506Z,62.32
2017-09-01T03:30:57.852Z,62.32
2017-09-01T03:31:57.879Z,62.13
2017-09-01T03:32:57.568Z,61.94
2017-09-01T03:33:57.591Z,62.42
2017-09-01T03:34:57.614Z,62.42
2017-09-01T03:35:57.636Z,62.04
2017-09-01T03:36:57.655Z,62.23
2017-09-01T03:37:58.012Z,62.04
2017-09-01T03:38:57.701Z,61.94
2017-09-01T03:39:57.851Z,61.94
2017-09-01T03:40:58.155Z,62.23
2017-09-01T03:41:58.153Z,62.42
2017-09-01T03:42:58.180Z,62.23
2017-09-01T03:43:58.188Z,62.23
2017-09-01T03:44:58.250Z,62.13
2017-09-01T03:45:57.854Z,62.32
2017-09-01T03:46:58.213Z,62.13
2017-09-01T03:47:57.901Z,62.32
2017-09-01T03:48:57.920Z,62.04
2017-09-01T03:49:58.259Z,62.32
2017-09-01T03:50:57.961Z,62.23
2017-09-01T03:51:57.982Z,62.13
2017-09-01T03:52:58.390Z,62.32
2017-09-01T03:53:58.024Z,62.23
2017-09-01T03:54:58.049Z,62.13
2017-09-01T03:55:58.071Z,62.32
2017-09-01T03:56:58.423Z,62.13
2017-09-01T03:57:58.111Z,62.23
2017-09-01T03:58:58.474Z,62.13
2017-09-01T03:59:58.482Z,62.19
2017-09-01T04:00:58.181Z,61.94
2017-09-01T04:01:58.524Z,62.04
2017-09-01T04:02:58.333Z,62.04
2017-09-01T04:03:58.566Z,62.04
2017-09-01T04:04:58.589Z,62.04
2017-09-01T04:05:58.609Z,62.23
2017-09-01T04:06:58.633Z,62.23
2017-09-01T04:07:58.331Z,62.01
2017-09-01T04:08:58.678Z,62.01
2017-09-01T04:09:58.393Z,61.94
2017-09-01T04:10:58.719Z,62.42
2017-09-01T04:11:58.739Z,62.48
2017-09-01T04:12:58.760Z,62.42
2017-09-01T04:13:58.459Z,61.94
2017-09-01T04:14:58.801Z,62.39
2017-09-01T04:15:58.823Z,62.01
2017-09-01T04:16:59.058Z,62.19
2017-09-01T04:17:58.544Z,62.19
2017-09-01T04:18:58.568Z,62.42
2017-09-01T04:19:58.592Z,62.01
2017-09-01T04:20:58.611Z,62.19
2017-09-01T04:21:58.954Z,62.19
2017-09-01T04:22:58.977Z,62.01
2017-09-01T04:23:58.681Z,62.1
2017-09-01T04:24:59.018Z,62.39
2017-09-01T04:25:59.046Z,62.39
2017-09-01T04:26:59.062Z,62.29
2017-09-01T04:27:58.766Z,62.58
2017-09-01T04:28:58.781Z,62.58
2017-09-01T04:29:59.131Z,62.58
2017-09-01T04:30:58.828Z,62.1
2017-09-01T04:31:59.167Z,62.39
2017-09-01T04:32:58.869Z,62.39
2017-09-01T04:33:59.215Z,62.58
2017-09-01T04:34:58.915Z,62.29
2017-09-01T04:35:59.260Z,62.68
2017-09-01T04:36:59.284Z,62.29
2017-09-01T04:37:58.980Z,62.39
2017-09-01T04:38:59.325Z,62.48
2017-09-01T04:39:59.341Z,62.48
2017-09-01T04:40:59.367Z,62.48
2017-09-01T04:41:59.066Z,62.19
2017-09-01T04:42:59.409Z,62.68
2017-09-01T04:43:59.433Z,62.77
2017-09-01T04:44:59.451Z,62.96
2017-09-01T04:45:59.150Z,62.96
2017-09-01T04:46:59.497Z,62.96
2017-09-01T04:47:59.516Z,62.96
2017-09-01T04:48:59.551Z,63.06
2017-09-01T04:49:59.560Z,62.96
2017-09-01T04:50:59.590Z,63.16
2017-09-01T04:51:59.607Z,63.06
2017-09-01T04:52:59.660Z,63.25
2017-09-01T04:53:59.646Z,63.06
2017-09-01T04:54:59.669Z,62.96
2017-09-01T04:55:59.876Z,62.87
2017-09-01T04:56:59.580Z,63.06
2017-09-01T04:57:59.897Z,63.06
2017-09-01T04:58:59.893Z,62.96
2017-09-01T04:59:59.893Z,63.16
2017-09-01T05:00:59.574Z,63.06
2017-09-01T05:01:59.720Z,62.96
2017-09-01T05:03:00.034Z,62.96
2017-09-01T05:03:59.868Z,62.96
2017-09-01T05:04:59.890Z,62.96
2017-09-01T05:05:59.903Z,63.06
2017-09-01T05:06:59.926Z,63.06
2017-09-01T05:07:59.946Z,63.06
2017-09-01T05:08:59.650Z,63.16
2017-09-01T05:09:59.997Z,63.06
2017-09-01T05:11:00.014Z,63.16
2017-09-01T05:11:59.712Z,63.06
2017-09-01T05:13:00.085Z,63.16
2017-09-01T05:14:00.078Z,62.77
2017-09-01T05:15:00.098Z,62.87
2017-09-01T05:16:00.139Z,62.87
2017-09-01T05:16:59.820Z,62.96
2017-09-01T05:17:59.840Z,62.77
2017-09-01T05:19:00.186Z,62.96
2017-09-01T05:19:59.881Z,62.96
2017-09-01T05:21:00.261Z,62.96
2017-09-01T05:22:00.247Z,62.96
2017-09-01T05:23:00.273Z,62.96
2017-09-01T05:23:59.973Z,62.96
2017-09-01T05:24:59.990Z,62.96
2017-09-01T05:26:00.333Z,62.77
2017-09-01T05:27:00.352Z,62.96
2017-09-01T05:28:00.381Z,62.77
2017-09-01T05:29:00.403Z,62.77
2017-09-01T05:30:00.098Z,62.96
2017-09-01T05:31:00.452Z,62.87
2017-09-01T05:32:00.466Z,62.87
2017-09-01T05:33:00.486Z,62.96
2017-09-01T05:34:00.185Z,62.96
2017-09-01T05:35:00.532Z,63.06
2017-09-01T05:36:00.551Z,62.87
2017-09-01T05:37:00.247Z,62.96
2017-09-01T05:38:00.593Z,63.06
2017-09-01T05:39:00.614Z,62.48
2017-09-01T05:40:00.636Z,63.09
2017-09-01T05:41:00.337Z,63.19
2017-09-01T05:42:00.683Z,62.9
2017-09-01T05:43:00.700Z,63.19
2017-09-01T05:44:00.721Z,63.09
2017-09-01T05:45:00.741Z,62.99
2017-09-01T05:46:00.769Z,62.81
2017-09-01T05:47:00.468Z,62.99
2017-09-01T05:48:00.816Z,63.38
2017-09-01T05:49:00.834Z,62.71
2017-09-01T05:50:00.851Z,62.99
2017-09-01T05:51:00.878Z,63.19
2017-09-01T05:52:00.574Z,63.48
2017-09-01T05:53:00.918Z,62.99
2017-09-01T05:54:00.950Z,62.9
2017-09-01T05:55:00.963Z,63.38
2017-09-01T05:56:00.988Z,63.38
2017-09-01T05:57:00.678Z,62.99
2017-09-01T05:58:00.699Z,62.71
2017-09-01T05:59:01.050Z,62.99
2017-09-01T06:00:01.073Z,62.81
2017-09-01T06:01:01.090Z,62.71
2017-09-01T06:02:01.121Z,62.9
2017-09-01T06:03:01.130Z,62.99
2017-09-01T06:04:01.161Z,62.99
2017-09-01T06:05:00.853Z,63.02
2017-09-01T06:06:00.893Z,63.28
2017-09-01T06:07:01.221Z,63.41
2017-09-01T06:08:01.292Z,63.28
2017-09-01T06:09:00.938Z,63.12
2017-09-01T06:10:00.960Z,63.32
2017-09-01T06:11:01.413Z,63.32
2017-09-01T06:12:01.000Z,62.55
2017-09-01T06:13:01.449Z,62.84
2017-09-01T06:14:01.046Z,63.12
2017-09-01T06:15:01.445Z,63.02
2017-09-01T06:16:01.453Z,63.02
2017-09-01T06:17:01.445Z,62.93
2017-09-01T06:18:01.459Z,63.02
2017-09-01T06:19:01.264Z,63.12
2017-09-01T06:20:01.263Z,63.02
2017-09-01T06:21:01.589Z,63.12
2017-09-01T06:22:01.587Z,63.22
2017-09-01T06:23:01.286Z,62.45
2017-09-01T06:24:01.304Z,62.74
2017-09-01T06:25:01.680Z,62.35
2017-09-01T06:26:01.626Z,62.55
2017-09-01T06:27:01.335Z,62.45
2017-09-01T06:28:01.679Z,62.64
2017-09-01T06:29:01.372Z,62.64
2017-09-01T06:30:01.717Z,62.35
2017-09-01T06:31:01.739Z,62.45
2017-09-01T06:32:01.444Z,62.45
2017-09-01T06:33:01.782Z,61.97
2017-09-01T06:34:01.482Z,62.26
2017-09-01T06:35:01.830Z,62.07
2017-09-01T06:36:01.849Z,62.48
2017-09-01T06:37:01.873Z,62.19
2017-09-01T06:38:01.895Z,62.38
2017-09-01T06:39:01.594Z,62.38
2017-09-01T06:40:01.945Z,62.48
2017-09-01T06:41:01.635Z,62
2017-09-01T06:42:01.657Z,62.38
2017-09-01T06:43:02.003Z,62.48
2017-09-01T06:44:02.021Z,62.38
2017-09-01T06:45:02.050Z,62.29
2017-09-01T06:46:01.749Z,62
2017-09-01T06:47:01.766Z,62
2017-09-01T06:48:01.786Z,62.19
2017-09-01T06:49:02.150Z,62.38
2017-09-01T06:50:01.839Z,62
2017-09-01T06:51:01.853Z,62
2017-09-01T06:52:02.204Z,61.61
2017-09-01T06:53:01.906Z,61.61
2017-09-01T06:54:01.921Z,61.52
2017-09-01T06:55:02.278Z,61.33
2017-09-01T06:56:02.294Z,61.52
2017-09-01T06:57:01.988Z,61.43
2017-09-01T06:58:02.339Z,61.81
2017-09-01T06:59:02.365Z,61.52
2017-09-01T07:00:02.379Z,61.61
2017-09-01T07:01:02.073Z,61.04
2017-09-01T07:02:02.418Z,61.14
2017-09-01T07:03:02.444Z,61.14
2017-09-01T07:04:02.143Z,61.23
2017-09-01T07:05:02.494Z,61.43
2017-09-01T07:06:02.510Z,61.23
2017-09-01T07:07:02.529Z,61.23
2017-09-01T07:08:02.552Z,61.43
2017-09-01T07:09:02.573Z,61.33
2017-09-01T07:10:02.281Z,61.33
2017-09-01T07:11:02.409Z,61.65
2017-09-01T07:12:02.606Z,61.52
2017-09-01T07:13:02.751Z,61.71
2017-09-01T07:14:02.360Z,61.61
2017-09-01T07:15:02.710Z,61.07
2017-09-01T07:16:02.599Z,61.26
2017-09-01T07:17:02.755Z,61.65
2017-09-01T07:18:02.772Z,61.36
2017-09-01T07:19:02.473Z,61.36
2017-09-01T07:20:02.513Z,60.97
2017-09-01T07:21:02.837Z,60.78
2017-09-01T07:22:02.550Z,60.78
2017-09-01T07:23:02.569Z,60.59
2017-09-01T07:24:02.914Z,60.59
2017-09-01T07:25:02.931Z,61.07
2017-09-01T07:26:02.723Z,60.78
2017-09-01T07:27:02.668Z,60.3
2017-09-01T07:28:02.692Z,60.49
2017-09-01T07:29:02.697Z,59.92
2017-09-01T07:30:02.716Z,60.04
2017-09-01T07:31:02.741Z,59.92
2017-09-01T07:32:02.792Z,59.63
2017-09-01T07:33:02.789Z,59.72
2017-09-01T07:34:02.828Z,59.56
2017-09-01T07:35:03.156Z,59.66
2017-09-01T07:36:03.203Z,59.75
2017-09-01T07:37:02.874Z,59.56
2017-09-01T07:38:03.220Z,59.66
2017-09-01T07:39:03.244Z,59.75
2017-09-01T07:40:02.973Z,59.85
2017-09-01T07:41:02.963Z,59.17
2017-09-01T07:42:03.007Z,59.94
2017-09-01T07:43:03.005Z,59.56
2017-09-01T07:44:03.352Z,59.17
2017-09-01T07:45:03.374Z,59.17
2017-09-01T07:46:03.400Z,59.4
2017-09-01T07:47:03.421Z,58.92
2017-09-01T07:48:03.134Z,58.92
2017-09-01T07:49:03.141Z,58.72
2017-09-01T07:50:03.493Z,58.53
2017-09-01T07:51:03.512Z,58.63
2017-09-01T07:52:03.241Z,58.34
2017-09-01T07:53:03.558Z,58.24
2017-09-01T07:54:03.298Z,57.95
2017-09-01T07:55:03.278Z,57.76
2017-09-01T07:56:03.313Z,57.95
2017-09-01T07:57:03.334Z,57.67
2017-09-01T07:58:03.666Z,57.37
2017-09-01T07:59:03.697Z,56.8
2017-09-01T08:00:03.418Z,57.09
2017-09-01T08:01:03.735Z,56.73
2017-09-01T08:02:03.475Z,57.31
2017-09-01T08:03:03.779Z,56.63
2017-09-01T08:04:03.482Z,56.54
2017-09-01T08:05:03.829Z,56.54
2017-09-01T08:06:03.849Z,56.15
2017-09-01T08:07:03.876Z,55.87
2017-09-01T08:08:03.600Z,56.25
2017-09-01T08:09:03.919Z,55.87
2017-09-01T08:10:03.655Z,55.67
2017-09-01T08:11:03.973Z,55.57
2017-09-01T08:12:03.992Z,56.25
2017-09-01T08:13:03.706Z,56.05
2017-09-01T08:14:04.034Z,56.35
2017-09-01T08:15:03.734Z,56.15
2017-09-01T08:16:03.774Z,56.05
2017-09-01T08:17:03.786Z,55.87
2017-09-01T08:18:03.802Z,55.48
2017-09-01T08:19:03.828Z,55.96
2017-09-01T08:20:04.264Z,56.09
2017-09-01T08:21:03.872Z,55.48
2017-09-01T08:22:04.624Z,55.48
2017-09-01T08:23:04.243Z,55.41
2017-09-01T08:24:03.946Z,55.31
2017-09-01T08:25:04.358Z,55.31
2017-09-01T08:26:04.385Z,55.41
2017-09-01T08:27:04.084Z,55.12
2017-09-01T08:28:04.081Z,54.83
2017-09-01T08:29:04.397Z,54.25
2017-09-01T08:30:04.092Z,54.35
2017-09-01T08:31:04.431Z,54.74
2017-09-01T08:32:04.125Z,54.06
2017-09-01T08:33:04.146Z,53.77
2017-09-01T08:34:04.174Z,54.54
2017-09-01T08:35:04.195Z,53.67
2017-09-01T08:36:04.541Z,54.06
2017-09-01T08:37:04.572Z,53.96
2017-09-01T08:38:04.264Z,54.06
2017-09-01T08:39:04.613Z,53.48
2017-09-01T08:40:04.310Z,53.96
2017-09-01T08:41:04.332Z,53.51
2017-09-01T08:42:04.356Z,53.61
2017-09-01T08:43:04.703Z,52.93
2017-09-01T08:44:04.400Z,53.7
2017-09-01T08:45:04.748Z,53.31
2017-09-01T08:46:04.453Z,53.51
2017-09-01T08:47:04.800Z,53.51
2017-09-01T08:48:04.821Z,53.44
2017-09-01T08:49:04.524Z,53.34
2017-09-01T08:50:04.871Z,53.34
2017-09-01T08:51:04.573Z,53.15
2017-09-01T08:52:04.594Z,52.95
2017-09-01T08:53:04.612Z,52.95
2017-09-01T08:54:04.961Z,52.95
2017-09-01T08:55:04.981Z,52.76
2017-09-01T08:56:05.008Z,52.47
2017-09-01T08:57:04.707Z,52.57
2017-09-01T08:58:05.057Z,52.67
2017-09-01T08:59:05.078Z,52.47
2017-09-01T09:00:05.099Z,52.37
2017-09-01T09:01:04.800Z,51.99
2017-09-01T09:02:05.146Z,51.73
2017-09-01T09:03:05.173Z,51.92
2017-09-01T09:04:05.193Z,52.21
2017-09-01T09:05:05.225Z,51.92
2017-09-01T09:06:05.241Z,51.53
2017-09-01T09:07:04.944Z,51.44
2017-09-01T09:08:05.295Z,51.34
2017-09-01T09:09:05.310Z,51.25
2017-09-01T09:10:05.336Z,51.25
2017-09-01T09:11:05.039Z,51.73
2017-09-01T09:12:05.059Z,51.25
2017-09-01T09:13:05.411Z,51.05
2017-09-01T09:14:05.112Z,51.53
2017-09-01T09:15:05.462Z,51.05
2017-09-01T09:16:05.157Z,51.63
2017-09-01T09:17:05.514Z,51.53
2017-09-01T09:18:05.524Z,51.15
2017-09-01T09:19:05.552Z,51.44
2017-09-01T09:20:05.587Z,51.15
2017-09-01T09:21:05.608Z,51.53
2017-09-01T09:22:05.624Z,51.27
2017-09-01T09:23:05.651Z,50.86
2017-09-01T09:24:05.372Z,50.86
2017-09-01T09:25:05.698Z,50.96
2017-09-01T09:26:05.720Z,50.57
2017-09-01T09:27:05.747Z,51.05
2017-09-01T09:28:05.444Z,50.96
2017-09-01T09:29:05.473Z,51.15
2017-09-01T09:30:05.495Z,50.76
2017-09-01T09:31:05.841Z,50.57
2017-09-01T09:32:05.863Z,50.96
2017-09-01T09:33:05.886Z,50.57
2017-09-01T09:34:05.920Z,50.86
2017-09-01T09:35:05.610Z,50.96
2017-09-01T09:36:05.960Z,50.79
2017-09-01T09:37:05.990Z,50.09
2017-09-01T09:38:05.761Z,50.31
2017-09-01T09:39:05.706Z,50.28
2017-09-01T09:40:06.065Z,50.09
2017-09-01T09:41:06.081Z,50.09
2017-09-01T09:42:05.781Z,50.09
2017-09-01T09:43:06.129Z,49.99
2017-09-01T09:44:05.829Z,49.9
2017-09-01T09:45:05.856Z,50.28
2017-09-01T09:46:05.875Z,49.8
2017-09-01T09:47:05.905Z,49.99
2017-09-01T09:48:06.257Z,50.09
2017-09-01T09:49:05.948Z,50.09
2017-09-01T09:50:05.972Z,50.09
2017-09-01T09:51:06.326Z,50.18
2017-09-01T09:52:06.345Z,50.18
2017-09-01T09:53:06.420Z,50.18
2017-09-01T09:54:06.072Z,49.8
2017-09-01T09:55:06.096Z,49.7
2017-09-01T09:56:06.442Z,49.41
2017-09-01T09:57:06.158Z,49.8
2017-09-01T09:58:06.494Z,49.9
2017-09-01T09:59:06.531Z,49.7
2017-09-01T10:00:06.572Z,49.82
2017-09-01T10:01:06.565Z,49.6
2017-09-01T10:02:06.267Z,49.73
2017-09-01T10:03:06.289Z,49.82
2017-09-01T10:04:06.638Z,49.73
2017-09-01T10:05:06.435Z,49.73
2017-09-01T10:06:06.440Z,49.53
2017-09-01T10:07:06.800Z,49.53
2017-09-01T10:08:06.805Z,49.73
2017-09-01T10:09:06.819Z,49.82
2017-09-01T10:10:06.462Z,49.92
2017-09-01T10:11:06.810Z,49.53
2017-09-01T10:12:06.510Z,49.15
2017-09-01T10:13:06.859Z,49.34
2017-09-01T10:14:06.562Z,49.15
2017-09-01T10:15:06.582Z,49.24
2017-09-01T10:16:06.607Z,49.24
2017-09-01T10:17:06.632Z,49.44
2017-09-01T10:18:07.029Z,49.82
2017-09-01T10:19:07.120Z,49.63
2017-09-01T10:20:07.120Z,49.63
2017-09-01T10:21:07.146Z,49.73
2017-09-01T10:22:07.144Z,49.63
2017-09-01T10:23:07.154Z,49.53
2017-09-01T10:24:07.218Z,49.44
2017-09-01T10:25:07.158Z,49.24
2017-09-01T10:26:06.854Z,49.05
2017-09-01T10:27:06.876Z,49.15
2017-09-01T10:28:06.902Z,49.34
2017-09-01T10:29:06.927Z,48.86
2017-09-01T10:30:07.270Z,48.95
2017-09-01T10:31:07.297Z,48.59
2017-09-01T10:32:07.000Z,48.76
2017-09-01T10:33:07.350Z,48.47
2017-09-01T10:34:07.376Z,48.86
2017-09-01T10:35:07.193Z,48.86
2017-09-01T10:36:07.192Z,48.95
2017-09-01T10:37:07.642Z,48.95
2017-09-01T10:38:07.650Z,48.76
2017-09-01T10:39:07.317Z,48.76
2017-09-01T10:40:07.634Z,48.57
2017-09-01T10:41:07.317Z,48.76
2017-09-01T10:42:07.354Z,48.86
2017-09-01T10:43:07.361Z,48.66
2017-09-01T10:44:07.712Z,48.57
2017-09-01T10:45:07.709Z,48.47
2017-09-01T10:46:07.381Z,48.76
2017-09-01T10:47:07.698Z,49.24
2017-09-01T10:48:07.722Z,49.15
2017-09-01T10:49:07.417Z,49.15
2017-09-01T10:50:07.443Z,49.15
2017-09-01T10:51:07.471Z,48.86
2017-09-01T10:52:07.815Z,49.05
2017-09-01T10:53:07.840Z,48.95
2017-09-01T10:54:09.402Z,48.57
2017-09-01T10:55:07.564Z,48.86
2017-09-01T10:56:07.589Z,48.66
2017-09-01T10:57:07.939Z,48.95
2017-09-01T10:58:07.640Z,48.66
2017-09-01T10:59:07.661Z,48.76
2017-09-01T11:00:08.018Z,48.95
2017-09-01T11:01:07.712Z,48.86
2017-09-01T11:02:08.062Z,48.66
2017-09-01T11:03:08.089Z,48.47
2017-09-01T11:04:08.367Z,48.57
2017-09-01T11:05:08.136Z,48.76
2017-09-01T11:06:08.167Z,48.57
2017-09-01T11:07:08.181Z,48.86
2017-09-01T11:08:08.207Z,48.57
2017-09-01T11:09:08.237Z,48.76
2017-09-01T11:10:08.256Z,48.66
2017-09-01T11:11:08.282Z,48.86
2017-09-01T11:12:07.982Z,48.66
2017-09-01T11:13:08.332Z,48.76
2017-09-01T11:14:08.356Z,48.86
2017-09-01T11:15:08.387Z,48.57
2017-09-01T11:16:08.409Z,48.28
2017-09-01T11:17:08.104Z,48.57
2017-09-01T11:18:08.132Z,48.28
2017-09-01T11:19:08.481Z,48.18
2017-09-01T11:20:08.506Z,48.57
2017-09-01T11:21:08.206Z,48.57
2017-09-01T11:22:08.556Z,48.18
2017-09-01T11:23:08.257Z,48.18
2017-09-01T11:24:08.802Z,48.76
2017-09-01T11:25:08.305Z,48.08
2017-09-01T11:26:08.653Z,48.66
2017-09-01T11:27:08.353Z,48.86
2017-09-01T11:28:08.710Z,48.86
2017-09-01T11:29:08.401Z,48.86
2017-09-01T11:30:08.426Z,48.47
2017-09-01T11:31:08.451Z,48.37
2017-09-01T11:32:08.801Z,48.47
2017-09-01T11:33:08.502Z,48.37
2017-09-01T11:34:08.855Z,48.47
2017-09-01T11:35:08.555Z,48.37
2017-09-01T11:36:08.575Z,48.37
2017-09-01T11:37:08.930Z,48.3
2017-09-01T11:38:08.626Z,48.76
2017-09-01T11:39:08.969Z,48.37
2017-09-01T11:40:08.676Z,48.37
2017-09-01T11:41:09.021Z,48.37
2017-09-01T11:42:08.723Z,48.08
2017-09-01T11:43:09.072Z,48.08
2017-09-01T11:44:08.773Z,47.8
2017-09-01T11:45:08.798Z,48.08
2017-09-01T11:46:08.820Z,47.7
2017-09-01T11:47:09.171Z,47.7
2017-09-01T11:48:09.194Z,47.5
2017-09-01T11:49:08.901Z,47.5
2017-09-01T11:50:09.245Z,47.31
2017-09-01T11:51:09.270Z,47.41
2017-09-01T11:52:08.976Z,47.5
2017-09-01T11:53:09.318Z,47.63
2017-09-01T11:54:09.019Z,47.41
2017-09-01T11:55:09.364Z,47.5
2017-09-01T11:56:09.393Z,47.33
2017-09-01T11:57:09.414Z,47.43
2017-09-01T11:58:09.447Z,47.5
2017-09-01T11:59:09.471Z,47.31
2017-09-01T12:00:09.169Z,47.22
2017-09-01T12:01:09.516Z,47.72
2017-09-01T12:02:09.217Z,47.41
2017-09-01T12:03:09.249Z,47.22
2017-09-01T12:04:09.595Z,47.53
2017-09-01T12:05:09.292Z,47.6
2017-09-01T12:06:09.317Z,47.72
2017-09-01T12:07:09.671Z,47.8
2017-09-01T12:08:09.808Z,47.63
2017-09-01T12:09:09.816Z,47.53
2017-09-01T12:10:09.843Z,47.72
2017-09-01T12:11:09.443Z,47.72
2017-09-01T12:12:09.842Z,47.63
2017-09-01T12:13:09.839Z,47.72
2017-09-01T12:14:09.513Z,47.72
2017-09-01T12:15:09.541Z,47.72
2017-09-01T12:16:09.978Z,47.53
2017-09-01T12:17:10.006Z,47.63
2017-09-01T12:18:10.004Z,47.63
2017-09-01T12:19:09.960Z,47.63
2017-09-01T12:20:10.004Z,47.81
2017-09-01T12:21:10.011Z,47.81
2017-09-01T12:22:09.822Z,47.33
2017-09-01T12:23:10.148Z,47.81
2017-09-01T12:24:10.146Z,47.53
2017-09-01T12:25:10.147Z,47.05
2017-09-01T12:26:10.148Z,47.05
2017-09-01T12:27:10.255Z,47.24
2017-09-01T12:28:09.988Z,47.24
2017-09-01T12:29:10.216Z,47.14
2017-09-01T12:30:10.250Z,47.33
2017-09-01T12:31:10.260Z,47.53
2017-09-01T12:32:10.285Z,47.43
2017-09-01T12:33:10.008Z,47.53
2017-09-01T12:34:10.333Z,47.6
2017-09-01T12:35:10.128Z,47.53
2017-09-01T12:36:10.382Z,47.02
2017-09-01T12:37:10.411Z,47.5
2017-09-01T12:38:10.431Z,48.01
2017-09-01T12:39:10.460Z,47.6
2017-09-01T12:40:10.486Z,47.7
2017-09-01T12:41:10.515Z,47.8
2017-09-01T12:42:10.537Z,47.7
2017-09-01T12:43:10.561Z,47.7
2017-09-01T12:44:10.262Z,47.99
2017-09-01T12:45:10.609Z,47.89
2017-09-01T12:46:10.641Z,48.28
2017-09-01T12:47:10.661Z,48.18
2017-09-01T12:48:10.683Z,48.57
2017-09-01T12:49:10.711Z,48.28
2017-09-01T12:50:10.745Z,48.18
2017-09-01T12:51:10.760Z,48.37
2017-09-01T12:52:10.784Z,48.37
2017-09-01T12:53:10.482Z,48.47
2017-09-01T12:54:10.831Z,48.37
2017-09-01T12:55:10.858Z,48.37
2017-09-01T12:56:10.557Z,48.47